createdAt,value
2019-05-03T00:00:52.785Z,0.00
2019-05-03T00:01:52.870Z,0.00
2019-05-03T00:02:52.749Z,0.00
2019-05-03T00:03:52.751Z,0.00
2019-05-03T00:04:52.748Z,0.00
2019-05-03T00:05:52.735Z,0.00
2019-05-03T00:06:52.708Z,0.00
2019-05-03T00:07:52.699Z,0.00
2019-05-03T00:08:52.703Z,0.00
2019-05-03T00:09:52.699Z,0.00
2019-05-03T00:10:52.682Z,0.00
2019-05-03T00:11:52.900Z,0.00
2019-05-03T00:12:52.878Z,0.00
2019-05-03T00:13:52.665Z,0.00
2019-05-03T00:14:52.634Z,0.00
2019-05-03T00:15:52.624Z,0.00
2019-05-03T00:16:52.605Z,0.00
2019-05-03T00:17:52.724Z,0.00
2019-05-03T00:18:52.749Z,0.00
2019-05-03T00:19:52.819Z,0.00
2019-05-03T00:20:52.748Z,0.00
2019-05-03T00:21:52.656Z,0.00
2019-05-03T00:22:52.536Z,0.00
2019-05-03T00:23:52.533Z,0.00
2019-05-03T00:25:03.061Z,0.00
2019-05-03T00:25:53.531Z,0.00
2019-05-03T00:26:52.494Z,0.00
2019-05-03T00:27:52.858Z,0.00
2019-05-03T00:28:52.473Z,0.00
2019-05-03T00:29:52.492Z,0.00
2019-05-03T00:30:52.479Z,0.00
2019-05-03T00:31:52.451Z,0.00
2019-05-03T00:32:52.441Z,0.00
2019-05-03T00:33:52.425Z,0.00
2019-05-03T00:34:52.485Z,0.00
2019-05-03T00:35:52.512Z,0.00
2019-05-03T00:36:52.563Z,0.00
2019-05-03T00:37:52.641Z,0.00
2019-05-03T00:38:52.514Z,0.00
2019-05-03T00:39:52.427Z,0.00
2019-05-03T00:40:52.450Z,0.00
2019-05-03T00:41:52.351Z,0.00
2019-05-03T00:42:52.320Z,0.00
2019-05-03T00:43:52.310Z,0.00
2019-05-03T00:44:52.299Z,0.00
2019-05-03T00:45:52.296Z,0.00
2019-05-03T00:46:52.352Z,0.00
2019-05-03T00:47:52.719Z,0.00
2019-05-03T00:48:52.566Z,0.00
2019-05-03T00:49:52.244Z,0.00
2019-05-03T00:50:52.245Z,0.00
2019-05-03T00:51:52.228Z,0.00
2019-05-03T00:52:52.242Z,0.00
2019-05-03T00:53:53.067Z,0.00
2019-05-03T00:54:52.884Z,0.00
2019-05-03T00:55:52.562Z,0.00
2019-05-03T00:56:52.360Z,0.00
2019-05-03T00:57:52.287Z,0.00
2019-05-03T00:58:53.003Z,0.00
2019-05-03T00:59:52.825Z,0.00
2019-05-03T01:00:52.547Z,0.00
2019-05-03T01:01:52.264Z,0.00
2019-05-03T01:02:52.106Z,0.00
2019-05-03T01:03:52.619Z,0.00
2019-05-03T01:04:52.093Z,0.00
2019-05-03T01:05:52.966Z,0.00
2019-05-03T01:06:52.707Z,0.00
2019-05-03T01:07:52.573Z,0.00
2019-05-03T01:08:52.334Z,0.00
2019-05-03T01:09:52.034Z,0.00
2019-05-03T01:10:52.034Z,0.00
2019-05-03T01:11:52.459Z,0.00
2019-05-03T01:12:52.479Z,0.00
2019-05-03T01:13:52.331Z,0.00
2019-05-03T01:14:51.978Z,0.00
2019-05-03T01:15:52.084Z,0.00
2019-05-03T01:16:52.239Z,0.00
2019-05-03T01:17:52.551Z,0.00
2019-05-03T01:18:52.276Z,0.00
2019-05-03T01:19:52.241Z,0.00
2019-05-03T01:20:51.970Z,0.00
2019-05-03T01:21:51.973Z,0.00
2019-05-03T01:22:52.000Z,0.00
2019-05-03T01:23:52.563Z,0.00
2019-05-03T01:24:51.983Z,0.00
2019-05-03T01:25:51.873Z,0.00
2019-05-03T01:26:52.566Z,0.00
2019-05-03T01:27:52.207Z,0.00
2019-05-03T01:28:52.244Z,0.00
2019-05-03T01:29:52.087Z,0.00
2019-05-03T01:30:52.018Z,0.00
2019-05-03T01:31:52.842Z,0.00
2019-05-03T01:32:52.366Z,0.00
2019-05-03T01:33:51.830Z,0.00
2019-05-03T01:34:52.473Z,0.00
2019-05-03T01:35:51.951Z,0.00
2019-05-03T01:36:51.969Z,0.00
2019-05-03T01:37:51.919Z,0.00
2019-05-03T01:38:52.999Z,0.00
2019-05-03T01:39:52.586Z,0.00
2019-05-03T01:40:52.222Z,0.00
2019-05-03T01:41:52.000Z,0.00
2019-05-03T01:42:51.945Z,0.00
2019-05-03T01:43:52.644Z,0.00
2019-05-03T01:44:52.203Z,0.00
2019-05-03T01:45:51.952Z,0.00
2019-05-03T01:46:51.678Z,0.00
2019-05-03T01:47:52.619Z,0.00
2019-05-03T01:48:52.214Z,0.00
2019-05-03T01:49:52.060Z,0.00
2019-05-03T01:50:52.228Z,0.00
2019-05-03T01:51:52.651Z,0.00
2019-05-03T01:52:52.456Z,0.00
2019-05-03T01:53:52.369Z,0.00
2019-05-03T01:54:52.140Z,0.00
2019-05-03T01:55:52.266Z,0.00
2019-05-03T01:57:52.486Z,0.00
2019-05-03T01:58:52.368Z,0.00
2019-05-03T01:59:52.073Z,0.00
2019-05-03T02:00:51.928Z,0.00
2019-05-03T02:01:51.661Z,0.00
2019-05-03T02:02:52.495Z,0.00
2019-05-03T02:03:52.306Z,0.00
2019-05-03T02:04:53.246Z,0.00
2019-05-03T02:05:52.036Z,0.00
2019-05-03T02:06:51.901Z,0.00
2019-05-03T02:07:51.994Z,0.00
2019-05-03T02:08:52.163Z,0.00
2019-05-03T02:09:51.997Z,0.00
2019-05-03T02:10:51.815Z,0.00
2019-05-03T02:11:52.592Z,0.00
2019-05-03T02:12:52.275Z,0.00
2019-05-03T02:13:52.202Z,0.00
2019-05-03T02:14:51.729Z,0.00
2019-05-03T02:15:52.739Z,0.00
2019-05-03T02:16:52.320Z,0.00
2019-05-03T02:17:52.023Z,0.00
2019-05-03T02:18:51.793Z,0.00
2019-05-03T02:19:52.716Z,0.00
2019-05-03T02:20:52.515Z,0.00
2019-05-03T02:21:52.390Z,0.00
2019-05-03T02:22:52.209Z,0.00
2019-05-03T02:23:52.111Z,0.00
2019-05-03T02:24:52.610Z,0.00
2019-05-03T02:25:58.758Z,0.00
2019-05-03T02:26:52.972Z,0.00
2019-05-03T02:27:52.700Z,0.00
2019-05-03T02:28:52.735Z,0.00
2019-05-03T02:29:52.423Z,0.00
2019-05-03T02:30:53.242Z,0.00
2019-05-03T02:31:53.511Z,0.00
2019-05-03T02:32:53.343Z,0.00
2019-05-03T02:33:53.418Z,0.00
2019-05-03T02:34:53.502Z,0.00
2019-05-03T02:35:53.278Z,0.00
2019-05-03T02:36:53.744Z,0.00
2019-05-03T02:37:53.163Z,0.00
2019-05-03T02:38:53.316Z,0.00
2019-05-03T02:39:53.096Z,0.00
2019-05-03T02:40:53.194Z,0.00
2019-05-03T02:41:55.280Z,0.00
2019-05-03T02:42:52.046Z,0.00
2019-05-03T02:43:51.047Z,0.00
2019-05-03T02:44:51.025Z,0.00
2019-05-03T02:45:51.001Z,0.00
2019-05-03T02:46:50.992Z,0.00
2019-05-03T02:47:50.988Z,0.00
2019-05-03T02:48:50.976Z,0.00
2019-05-03T02:49:50.991Z,0.00
2019-05-03T02:50:50.947Z,0.00
2019-05-03T02:51:50.937Z,0.00
2019-05-03T02:52:50.936Z,0.00
2019-05-03T02:53:50.916Z,0.00
2019-05-03T02:54:50.904Z,0.00
2019-05-03T02:55:50.913Z,0.00
2019-05-03T02:56:50.882Z,0.00
2019-05-03T02:57:50.901Z,0.00
2019-05-03T02:58:50.859Z,0.00
2019-05-03T02:59:50.868Z,0.00
2019-05-03T03:00:50.839Z,0.00
2019-05-03T03:01:50.837Z,0.00
2019-05-03T03:02:50.839Z,0.00
2019-05-03T03:03:50.814Z,0.00
2019-05-03T03:04:50.798Z,0.00
2019-05-03T03:05:50.787Z,0.00
2019-05-03T03:06:50.814Z,0.00
2019-05-03T03:07:50.826Z,0.00
2019-05-03T03:08:50.767Z,0.00
2019-05-03T03:09:50.743Z,0.00
2019-05-03T03:10:50.735Z,0.00
2019-05-03T03:11:50.725Z,0.00
2019-05-03T03:12:50.723Z,0.00
2019-05-03T03:13:50.719Z,0.00
2019-05-03T03:14:50.688Z,0.00
2019-05-03T03:15:50.676Z,0.00
2019-05-03T03:16:50.671Z,0.00
2019-05-03T03:17:50.666Z,0.00
2019-05-03T03:18:50.645Z,0.00
2019-05-03T03:19:50.637Z,0.00
2019-05-03T03:20:50.638Z,0.00
2019-05-03T03:21:50.619Z,0.00
2019-05-03T03:22:50.621Z,0.00
2019-05-03T03:23:50.601Z,0.00
2019-05-03T03:24:50.581Z,0.00
2019-05-03T03:25:50.601Z,0.00
2019-05-03T03:26:50.572Z,0.00
2019-05-03T03:27:50.577Z,0.00
2019-05-03T03:28:50.541Z,0.00
2019-05-03T03:29:50.526Z,0.00
2019-05-03T03:30:50.516Z,0.00
2019-05-03T03:31:50.504Z,0.00
2019-05-03T03:32:50.497Z,0.00
2019-05-03T03:33:50.511Z,0.00
2019-05-03T03:34:56.929Z,0.00
2019-05-03T03:35:51.523Z,0.00
2019-05-03T03:37:00.673Z,0.00
2019-05-03T03:37:51.439Z,0.00
2019-05-03T03:38:50.443Z,0.00
2019-05-03T03:39:50.436Z,4.00
2019-05-03T03:40:50.421Z,4.00
2019-05-03T03:41:50.415Z,4.00
2019-05-03T03:42:50.399Z,4.00
2019-05-03T03:43:50.386Z,4.00
2019-05-03T03:44:50.390Z,8.00
2019-05-03T03:45:50.351Z,4.00
2019-05-03T03:46:50.348Z,8.00
2019-05-03T03:47:50.353Z,8.00
2019-05-03T03:48:50.336Z,8.00
2019-05-03T03:49:50.317Z,8.00
2019-05-03T03:50:50.356Z,8.00
2019-05-03T03:51:50.310Z,8.00
2019-05-03T03:52:50.285Z,8.00
2019-05-03T03:53:50.303Z,12.00
2019-05-03T03:54:50.258Z,12.00
2019-05-03T03:55:50.245Z,16.00
2019-05-03T03:56:59.322Z,20.00
2019-05-03T03:57:51.228Z,20.00
2019-05-03T03:58:50.234Z,28.00
2019-05-03T03:59:50.203Z,32.00
2019-05-03T04:00:50.193Z,32.00
2019-05-03T04:01:50.191Z,40.00
2019-05-03T04:02:50.181Z,48.00
2019-05-03T04:03:50.172Z,56.00
2019-05-03T04:04:50.152Z,56.00
2019-05-03T04:05:50.138Z,64.00
2019-05-03T04:06:50.139Z,68.00
2019-05-03T04:07:50.133Z,76.00
2019-05-03T04:08:50.119Z,76.00
2019-05-03T04:09:50.096Z,76.00
2019-05-03T04:10:50.084Z,84.00
2019-05-03T04:11:50.076Z,88.00
2019-05-03T04:12:50.063Z,100.00
2019-05-03T04:13:50.076Z,116.00
2019-05-03T04:14:50.072Z,120.00
2019-05-03T04:15:50.031Z,148.00
2019-05-03T04:16:50.021Z,168.00
2019-05-03T04:17:50.010Z,176.00
2019-05-03T04:18:50.004Z,192.00
2019-05-03T04:19:50.003Z,200.00
2019-05-03T04:20:49.989Z,212.00
2019-05-03T04:21:49.983Z,212.00
2019-05-03T04:22:49.955Z,224.00
2019-05-03T04:23:49.960Z,248.00
2019-05-03T04:24:49.943Z,276.00
2019-05-03T04:25:49.929Z,296.00
2019-05-03T04:26:49.941Z,300.00
2019-05-03T04:27:49.908Z,292.00
2019-05-03T04:28:49.891Z,336.00
2019-05-03T04:29:49.893Z,352.00
2019-05-03T04:30:49.870Z,372.00
2019-05-03T04:31:49.863Z,388.00
2019-05-03T04:32:49.859Z,400.00
2019-05-03T04:33:49.860Z,420.00
2019-05-03T04:34:49.862Z,448.00
2019-05-03T04:35:49.819Z,496.00
2019-05-03T04:36:49.808Z,572.00
2019-05-03T04:37:49.796Z,668.00
2019-05-03T04:38:49.803Z,716.00
2019-05-03T04:39:49.786Z,752.00
2019-05-03T04:40:49.791Z,780.00
2019-05-03T04:41:49.761Z,828.00
2019-05-03T04:42:49.778Z,884.00
2019-05-03T04:43:49.733Z,980.00
2019-05-03T04:44:49.729Z,1132.00
2019-05-03T04:45:49.708Z,1256.00
2019-05-03T04:46:49.697Z,1424.00
2019-05-03T04:47:49.688Z,1652.00
2019-05-03T04:48:49.691Z,1832.00
2019-05-03T04:49:49.717Z,1936.00
2019-05-03T04:50:49.860Z,2028.00
2019-05-03T04:51:49.691Z,2180.00
2019-05-03T04:52:49.696Z,2348.00
2019-05-03T04:53:49.622Z,2480.00
2019-05-03T04:54:49.628Z,2544.00
2019-05-03T04:55:49.627Z,2528.00
2019-05-03T04:56:49.590Z,2424.00
2019-05-03T04:57:50.579Z,2360.00
2019-05-03T04:58:49.582Z,2356.00
2019-05-03T04:59:49.594Z,2404.00
2019-05-03T05:00:49.573Z,2424.00
2019-05-03T05:01:49.535Z,2392.00
2019-05-03T05:02:49.524Z,2308.00
2019-05-03T05:03:49.516Z,2208.00
2019-05-03T05:04:49.545Z,2140.00
2019-05-03T05:05:49.516Z,2112.00
2019-05-03T05:06:49.481Z,2076.00
2019-05-03T05:07:49.498Z,1996.00
2019-05-03T05:08:49.461Z,1892.00
2019-05-03T05:09:49.532Z,2004.00
2019-05-03T05:10:49.449Z,1992.00
2019-05-03T05:11:49.455Z,2032.00
2019-05-03T05:12:49.427Z,1984.00
2019-05-03T05:13:49.415Z,1828.00
2019-05-03T05:14:49.403Z,1644.00
2019-05-03T05:15:49.403Z,1464.00
2019-05-03T05:16:49.374Z,1280.00
2019-05-03T05:17:49.396Z,1084.00
2019-05-03T05:18:49.359Z,968.00
2019-05-03T05:19:49.340Z,992.00
2019-05-03T05:20:49.354Z,1064.00
2019-05-03T05:21:49.321Z,1144.00
2019-05-03T05:22:49.310Z,1220.00
2019-05-03T05:23:49.323Z,1324.00
2019-05-03T05:24:49.292Z,1780.00
2019-05-03T05:25:49.293Z,2180.00
2019-05-03T05:26:49.265Z,2368.00
2019-05-03T05:27:54.533Z,2316.00
2019-05-03T05:28:50.245Z,2356.00
2019-05-03T05:29:49.241Z,2436.00
2019-05-03T05:30:49.247Z,2368.00
2019-05-03T05:31:49.213Z,2392.00
2019-05-03T05:32:49.214Z,2616.00
2019-05-03T05:33:49.191Z,2804.00
2019-05-03T05:34:49.180Z,2968.00
2019-05-03T05:35:49.178Z,2868.00
2019-05-03T05:36:49.174Z,2716.00
2019-05-03T05:37:49.150Z,2452.00
2019-05-03T05:38:49.138Z,2216.00
2019-05-03T05:39:49.129Z,2044.00
2019-05-03T05:40:49.130Z,1912.00
2019-05-03T05:41:49.138Z,1856.00
2019-05-03T05:42:49.105Z,1788.00
2019-05-03T05:43:49.185Z,1724.00
2019-05-03T05:44:49.099Z,1616.00
2019-05-03T05:45:49.106Z,1552.00
2019-05-03T05:46:49.051Z,1620.00
2019-05-03T05:47:49.044Z,1588.00
2019-05-03T05:48:49.030Z,1576.00
2019-05-03T05:49:49.030Z,1736.00
2019-05-03T05:50:49.020Z,1944.00
2019-05-03T05:51:48.997Z,2088.00
2019-05-03T05:52:48.985Z,2192.00
2019-05-03T05:53:48.975Z,2296.00
2019-05-03T05:54:48.963Z,2352.00
2019-05-03T05:55:48.975Z,2304.00
2019-05-03T05:56:48.941Z,2188.00
2019-05-03T05:58:01.268Z,2080.00
2019-05-03T05:58:49.926Z,2012.00
2019-05-03T05:59:48.927Z,2048.00
2019-05-03T06:00:48.928Z,2144.00
2019-05-03T06:01:48.896Z,2160.00
2019-05-03T06:02:48.896Z,2192.00
2019-05-03T06:03:48.868Z,2264.00
2019-05-03T06:04:48.858Z,2360.00
2019-05-03T06:05:48.890Z,2404.00
2019-05-03T06:06:48.846Z,2352.00
2019-05-03T06:07:48.842Z,2388.00
2019-05-03T06:08:48.930Z,2540.00
2019-05-03T06:09:48.822Z,2656.00
2019-05-03T06:10:48.796Z,2736.00
2019-05-03T06:11:48.803Z,2832.00
2019-05-03T06:12:48.815Z,2956.00
2019-05-03T06:13:48.799Z,3140.00
2019-05-03T06:14:48.767Z,3460.00
2019-05-03T06:15:48.754Z,3328.00
2019-05-03T06:16:48.753Z,2936.00
2019-05-03T06:17:48.741Z,2712.00
2019-05-03T06:18:48.705Z,2608.00
2019-05-03T06:19:48.695Z,2500.00
2019-05-03T06:20:48.688Z,2460.00
2019-05-03T06:21:48.686Z,2464.00
2019-05-03T06:22:48.685Z,2328.00
2019-05-03T06:23:48.663Z,2352.00
2019-05-03T06:24:48.644Z,2248.00
2019-05-03T06:25:48.634Z,2400.00
2019-05-03T06:26:48.629Z,2744.00
2019-05-03T06:27:48.608Z,2776.00
2019-05-03T06:28:48.609Z,2604.00
2019-05-03T06:29:48.589Z,2648.00
2019-05-03T06:30:48.579Z,2768.00
2019-05-03T06:31:48.576Z,2704.00
2019-05-03T06:32:48.570Z,2460.00
2019-05-03T06:33:48.543Z,2328.00
2019-05-03T06:34:48.553Z,2156.00
2019-05-03T06:35:48.540Z,2088.00
2019-05-03T06:36:51.281Z,2152.00
2019-05-03T06:37:48.514Z,2548.00
2019-05-03T06:38:48.496Z,2816.00
2019-05-03T06:39:48.501Z,2680.00
2019-05-03T06:40:48.498Z,2616.00
2019-05-03T06:41:48.466Z,2564.00
2019-05-03T06:42:54.100Z,2572.00
2019-05-03T06:43:49.437Z,2180.00
2019-05-03T06:44:48.427Z,1800.00
2019-05-03T06:45:50.500Z,1616.00
2019-05-03T06:46:48.428Z,1600.00
2019-05-03T06:47:49.862Z,1524.00
2019-05-03T06:48:48.381Z,1528.00
2019-05-03T06:49:48.657Z,1548.00
2019-05-03T06:50:48.365Z,1520.00
2019-05-03T06:51:49.635Z,1480.00
2019-05-03T06:52:48.361Z,1416.00
2019-05-03T06:53:50.640Z,1408.00
2019-05-03T06:54:48.331Z,1444.00
2019-05-03T06:55:48.681Z,1484.00
2019-05-03T06:56:48.308Z,1484.00
2019-05-03T06:57:49.669Z,1496.00
2019-05-03T06:58:48.279Z,1484.00
2019-05-03T06:59:48.306Z,1600.00
2019-05-03T07:00:48.262Z,1688.00
2019-05-03T07:01:48.244Z,1668.00
2019-05-03T07:02:48.242Z,1772.00
2019-05-03T07:03:48.223Z,1928.00
2019-05-03T07:04:48.230Z,1968.00
2019-05-03T07:05:48.201Z,1820.00
2019-05-03T07:06:48.231Z,1624.00
2019-05-03T07:07:48.187Z,1496.00
2019-05-03T07:08:48.169Z,1384.00
2019-05-03T07:09:48.160Z,1416.00
2019-05-03T07:10:48.165Z,1332.00
2019-05-03T07:11:48.148Z,1124.00
2019-05-03T07:12:48.211Z,972.00
2019-05-03T07:13:48.152Z,1348.00
2019-05-03T07:14:50.405Z,2044.00
2019-05-03T07:15:48.093Z,2336.00
2019-05-03T07:16:48.084Z,2404.00
2019-05-03T07:17:48.082Z,2244.00
2019-05-03T07:18:48.065Z,2280.00
2019-05-03T07:19:48.060Z,2668.00
2019-05-03T07:20:48.062Z,2984.00
2019-05-03T07:21:48.035Z,3304.00
2019-05-03T07:22:48.027Z,3500.00
2019-05-03T07:23:48.012Z,3576.00
2019-05-03T07:24:47.996Z,3736.00
2019-05-03T07:25:48.005Z,3636.00
2019-05-03T07:26:47.977Z,3468.00
2019-05-03T07:27:47.975Z,3340.00
2019-05-03T07:28:50.022Z,3332.00
2019-05-03T07:29:47.941Z,3576.00
2019-05-03T07:30:47.948Z,4212.00
2019-05-03T07:31:47.924Z,4816.00
2019-05-03T07:32:47.925Z,5212.00
2019-05-03T07:33:47.898Z,5508.00
2019-05-03T07:34:47.888Z,5972.00
2019-05-03T07:35:47.879Z,6688.00
2019-05-03T07:36:47.866Z,7360.00
2019-05-03T07:37:47.880Z,7904.00
2019-05-03T07:38:47.861Z,8308.00
2019-05-03T07:39:47.836Z,8580.00
2019-05-03T07:40:47.824Z,8808.00
2019-05-03T07:41:47.814Z,9004.00
2019-05-03T07:42:47.829Z,9188.00
2019-05-03T07:43:47.795Z,9392.00
2019-05-03T07:44:47.790Z,9672.00
2019-05-03T07:45:47.784Z,10024.00
2019-05-03T07:46:47.790Z,10420.00
2019-05-03T07:47:47.778Z,10808.00
2019-05-03T07:48:47.739Z,11080.00
2019-05-03T07:49:47.727Z,11264.00
2019-05-03T07:50:47.719Z,11340.00
2019-05-03T07:51:47.712Z,11352.00
2019-05-03T07:52:47.710Z,11328.00
2019-05-03T07:53:47.783Z,11292.00
2019-05-03T07:54:47.681Z,11268.00
2019-05-03T07:55:47.687Z,11164.00
2019-05-03T07:56:47.669Z,11096.00
2019-05-03T07:57:47.650Z,11020.00
2019-05-03T07:58:59.518Z,11016.00
2019-05-03T07:59:48.617Z,11040.00
2019-05-03T08:00:47.630Z,11008.00
2019-05-03T08:01:47.627Z,10972.00
2019-05-03T08:02:47.605Z,10904.00
2019-05-03T08:03:47.587Z,10776.00
2019-05-03T08:04:47.601Z,10616.00
2019-05-03T08:05:47.571Z,10440.00
2019-05-03T08:06:47.563Z,10372.00
2019-05-03T08:07:47.546Z,10392.00
2019-05-03T08:08:47.548Z,10480.00
2019-05-03T08:09:47.510Z,10552.00
2019-05-03T08:10:47.518Z,10544.00
2019-05-03T08:11:47.511Z,10500.00
2019-05-03T08:12:47.491Z,10388.00
2019-05-03T08:13:47.505Z,10288.00
2019-05-03T08:14:47.457Z,10184.00
2019-05-03T08:15:47.448Z,10060.00
2019-05-03T08:16:47.437Z,9988.00
2019-05-03T08:17:47.427Z,9980.00
2019-05-03T08:18:47.454Z,9888.00
2019-05-03T08:19:47.421Z,9800.00
2019-05-03T08:20:47.392Z,9672.00
2019-05-03T08:21:47.393Z,9440.00
2019-05-03T08:22:47.378Z,9184.00
2019-05-03T08:23:47.368Z,9024.00
2019-05-03T08:24:47.357Z,8872.00
2019-05-03T08:25:47.358Z,8684.00
2019-05-03T08:26:47.361Z,8460.00
2019-05-03T08:27:47.321Z,8196.00
2019-05-03T08:28:47.388Z,7872.00
2019-05-03T08:29:47.300Z,7664.00
2019-05-03T08:30:47.288Z,7624.00
2019-05-03T08:31:47.358Z,7728.00
2019-05-03T08:32:47.278Z,7824.00
2019-05-03T08:33:47.319Z,7864.00
2019-05-03T08:34:47.263Z,7840.00
2019-05-03T08:35:47.276Z,7732.00
2019-05-03T08:36:47.278Z,7736.00
2019-05-03T08:37:47.227Z,7936.00
2019-05-03T08:38:47.206Z,8240.00
2019-05-03T08:39:47.215Z,8604.00
2019-05-03T08:40:47.207Z,9000.00
2019-05-03T08:41:47.162Z,9420.00
2019-05-03T08:42:47.151Z,9816.00
2019-05-03T08:43:47.177Z,10132.00
2019-05-03T08:44:47.129Z,10440.00
2019-05-03T08:45:47.135Z,10716.00
2019-05-03T08:46:47.331Z,10980.00
2019-05-03T08:47:47.097Z,11176.00
2019-05-03T08:48:47.087Z,11264.00
2019-05-03T08:49:47.085Z,11260.00
2019-05-03T08:50:47.079Z,11180.00
2019-05-03T08:51:47.074Z,11020.00
2019-05-03T08:52:47.065Z,10856.00
2019-05-03T08:53:47.076Z,10684.00
2019-05-03T08:54:47.075Z,10576.00
2019-05-03T08:55:47.015Z,10520.00
2019-05-03T08:56:47.000Z,10484.00
2019-05-03T08:57:46.989Z,10456.00
2019-05-03T08:58:46.981Z,10456.00
2019-05-03T08:59:46.984Z,10584.00
2019-05-03T09:00:46.979Z,10816.00
2019-05-03T09:01:46.953Z,11092.00
2019-05-03T09:02:46.938Z,11360.00
2019-05-03T09:03:46.925Z,11624.00
2019-05-03T09:04:46.932Z,11916.00
2019-05-03T09:05:46.938Z,12436.00
2019-05-03T09:06:46.898Z,13160.00
2019-05-03T09:07:46.887Z,13832.00
2019-05-03T09:08:46.882Z,14224.00
2019-05-03T09:09:46.882Z,14608.00
2019-05-03T09:10:46.868Z,15016.00
2019-05-03T09:11:46.841Z,15144.00
2019-05-03T09:12:46.857Z,15060.00
2019-05-03T09:13:46.823Z,15036.00
2019-05-03T09:14:48.516Z,15336.00
2019-05-03T09:15:46.802Z,16116.00
2019-05-03T09:16:46.840Z,17184.00
2019-05-03T09:17:46.776Z,17792.00
2019-05-03T09:18:46.765Z,17984.00
2019-05-03T09:19:47.099Z,17824.00
2019-05-03T09:20:46.753Z,17184.00
2019-05-03T09:21:46.787Z,16384.00
2019-05-03T09:22:46.720Z,15616.00
2019-05-03T09:23:46.760Z,15448.00
2019-05-03T09:24:46.700Z,15364.00
2019-05-03T09:25:46.703Z,14992.00
2019-05-03T09:26:46.688Z,14496.00
2019-05-03T09:27:46.675Z,14132.00
2019-05-03T09:28:46.691Z,14008.00
2019-05-03T09:29:46.660Z,14088.00
2019-05-03T09:30:46.643Z,14224.00
2019-05-03T09:31:46.622Z,14416.00
2019-05-03T09:32:46.612Z,14840.00
2019-05-03T09:33:46.610Z,15400.00
2019-05-03T09:34:46.598Z,15888.00
2019-05-03T09:35:46.589Z,16384.00
2019-05-03T09:36:46.578Z,16640.00
2019-05-03T09:37:46.562Z,17280.00
2019-05-03T09:38:46.547Z,18048.00
2019-05-03T09:39:46.538Z,18912.00
2019-05-03T09:40:46.544Z,19584.00
2019-05-03T09:41:46.558Z,20064.00
2019-05-03T09:42:46.525Z,20288.00
2019-05-03T09:43:46.504Z,20448.00
2019-05-03T09:44:46.485Z,20768.00
2019-05-03T09:45:46.491Z,21344.00
2019-05-03T09:46:46.466Z,22048.00
2019-05-03T09:47:46.487Z,22880.00
2019-05-03T09:48:46.441Z,23232.00
2019-05-03T09:49:46.435Z,23552.00
2019-05-03T09:50:46.433Z,23776.00
2019-05-03T09:51:46.412Z,24128.00
2019-05-03T09:52:47.055Z,24192.00
2019-05-03T09:53:46.393Z,23904.00
2019-05-03T09:54:46.398Z,23872.00
2019-05-03T09:55:46.386Z,24544.00
2019-05-03T09:56:55.241Z,25312.00
2019-05-03T09:57:47.343Z,25216.00
2019-05-03T09:58:46.343Z,25856.00
2019-05-03T09:59:56.537Z,27296.00
2019-05-03T10:00:47.322Z,28704.00
2019-05-03T10:01:46.325Z,29312.00
2019-05-03T10:02:46.290Z,29280.00
2019-05-03T10:03:46.304Z,29600.00
2019-05-03T10:04:46.270Z,30464.00
2019-05-03T10:05:46.271Z,30464.00
2019-05-03T10:06:46.246Z,30176.00
2019-05-03T10:07:46.246Z,29664.00
2019-05-03T10:08:46.251Z,29056.00
2019-05-03T10:09:46.215Z,28128.00
2019-05-03T10:10:46.218Z,27168.00
2019-05-03T10:11:46.452Z,26816.00
2019-05-03T10:12:46.182Z,26752.00
2019-05-03T10:13:48.218Z,26784.00
2019-05-03T10:14:46.200Z,26848.00
2019-05-03T10:15:46.164Z,26816.00
2019-05-03T10:16:46.165Z,26656.00
2019-05-03T10:17:46.229Z,26368.00
2019-05-03T10:18:46.258Z,26176.00
2019-05-03T10:19:46.111Z,25824.00
2019-05-03T10:20:46.120Z,25312.00
2019-05-03T10:21:46.088Z,24480.00
2019-05-03T10:22:46.098Z,23168.00
2019-05-03T10:23:46.065Z,21792.00
2019-05-03T10:24:46.055Z,20512.00
2019-05-03T10:25:46.055Z,19552.00
2019-05-03T10:26:46.100Z,18752.00
2019-05-03T10:27:46.126Z,18720.00
2019-05-03T10:28:46.058Z,19456.00
2019-05-03T10:29:46.015Z,20512.00
2019-05-03T10:30:46.044Z,20992.00
2019-05-03T10:31:45.976Z,21152.00
2019-05-03T10:32:45.967Z,21344.00
2019-05-03T10:33:45.969Z,21088.00
2019-05-03T10:34:45.946Z,20896.00
2019-05-03T10:35:45.944Z,21088.00
2019-05-03T10:36:45.942Z,20928.00
2019-05-03T10:37:45.945Z,20192.00
2019-05-03T10:38:46.269Z,19456.00
2019-05-03T10:39:45.889Z,18848.00
2019-05-03T10:40:45.882Z,18784.00
2019-05-03T10:41:45.898Z,19104.00
2019-05-03T10:42:45.921Z,19904.00
2019-05-03T10:43:45.864Z,21056.00
2019-05-03T10:44:45.837Z,22048.00
2019-05-03T10:45:45.840Z,22816.00
2019-05-03T10:46:45.862Z,23584.00
2019-05-03T10:47:45.843Z,24448.00
2019-05-03T10:48:45.828Z,25824.00
2019-05-03T10:49:45.824Z,27360.00
2019-05-03T10:50:45.782Z,29120.00
2019-05-03T10:51:45.803Z,30976.00
2019-05-03T10:52:45.794Z,32832.00
2019-05-03T10:53:45.780Z,34656.00
2019-05-03T10:54:45.970Z,36640.00
2019-05-03T10:55:45.717Z,38912.00
2019-05-03T10:56:45.747Z,41856.00
2019-05-03T10:57:45.705Z,42880.00
2019-05-03T10:58:45.765Z,42400.00
2019-05-03T10:59:45.672Z,42336.00
2019-05-03T11:00:52.277Z,47680.00
2019-05-03T11:01:46.756Z,48896.00
2019-05-03T11:02:45.665Z,44608.00
2019-05-03T11:03:45.647Z,45504.00
2019-05-03T11:04:46.185Z,52864.00
2019-05-03T11:05:45.613Z,46784.00
2019-05-03T11:06:45.879Z,47392.00
2019-05-03T11:07:45.617Z,48896.00
2019-05-03T11:08:45.618Z,52768.00
2019-05-03T11:09:49.703Z,59488.00
2019-05-03T11:10:46.587Z,51104.00
2019-05-03T11:11:45.681Z,46944.00
2019-05-03T11:12:45.539Z,45856.00
2019-05-03T11:13:45.527Z,45440.00
2019-05-03T11:14:45.701Z,44704.00
2019-05-03T11:15:45.540Z,46048.00
2019-05-03T11:16:46.219Z,53536.00
2019-05-03T11:17:45.612Z,58112.00
2019-05-03T11:18:45.695Z,56832.00
2019-05-03T11:19:45.602Z,56864.00
2019-05-03T11:20:45.490Z,49440.00
2019-05-03T11:21:45.685Z,47904.00
2019-05-03T11:22:45.428Z,50272.00
2019-05-03T11:23:45.433Z,55648.00
2019-05-03T11:24:45.610Z,51328.00
2019-05-03T11:25:45.454Z,48672.00
2019-05-03T11:26:45.593Z,53824.00
2019-05-03T11:27:45.436Z,49760.00
2019-05-03T11:28:45.379Z,45792.00
2019-05-03T11:29:45.366Z,43744.00
2019-05-03T11:30:53.567Z,41472.00
2019-05-03T11:31:46.437Z,41312.00
2019-05-03T11:32:45.334Z,41056.00
2019-05-03T11:33:45.665Z,41184.00
2019-05-03T11:34:45.316Z,42944.00
2019-05-03T11:35:45.303Z,42400.00
2019-05-03T11:36:45.479Z,44000.00
2019-05-03T11:37:45.496Z,44832.00
2019-05-03T11:38:45.665Z,43264.00
2019-05-03T11:39:45.268Z,40672.00
2019-05-03T11:40:45.564Z,39136.00
2019-05-03T11:41:45.257Z,36992.00
2019-05-03T11:42:45.319Z,35296.00
2019-05-03T11:43:45.215Z,32992.00
2019-05-03T11:44:45.213Z,31616.00
2019-05-03T11:45:45.242Z,29600.00
2019-05-03T11:46:45.186Z,27840.00
2019-05-03T11:47:45.662Z,25856.00
2019-05-03T11:48:45.568Z,24224.00
2019-05-03T11:49:45.531Z,23712.00
2019-05-03T11:50:45.451Z,24320.00
2019-05-03T11:51:45.118Z,24640.00
2019-05-03T11:52:47.149Z,24640.00
2019-05-03T11:53:45.144Z,24704.00
2019-05-03T11:54:45.435Z,24416.00
2019-05-03T11:55:46.491Z,24736.00
2019-05-03T11:56:45.070Z,25728.00
2019-05-03T11:57:45.172Z,27712.00
2019-05-03T11:58:45.741Z,31200.00
2019-05-03T11:59:45.350Z,35264.00
2019-05-03T12:00:45.170Z,35136.00
2019-05-03T12:01:45.022Z,34784.00
2019-05-03T12:02:45.049Z,34560.00
2019-05-03T12:03:45.322Z,34272.00
2019-05-03T12:04:45.841Z,34208.00
2019-05-03T12:05:45.014Z,35200.00
2019-05-03T12:06:45.573Z,36000.00
2019-05-03T12:07:45.538Z,38496.00
2019-05-03T12:08:44.988Z,41344.00
2019-05-03T12:09:45.272Z,44000.00
2019-05-03T12:10:55.206Z,52064.00
2019-05-03T12:11:45.929Z,51424.00
2019-05-03T12:12:45.037Z,59808.00
2019-05-03T12:13:45.632Z,95200.00
2019-05-03T12:14:45.336Z,90208.00
2019-05-03T12:15:44.867Z,105376.00
2019-05-03T12:17:54.468Z,106560.00
2019-05-03T12:18:53.103Z,97568.00
2019-05-03T12:19:47.457Z,50720.00
2019-05-03T12:20:47.237Z,47264.00
2019-05-03T12:21:45.461Z,43872.00
2019-05-03T12:22:47.008Z,40864.00
2019-05-03T12:23:45.965Z,38688.00